El Paso, Texas
Current Conditions -  °F | °C
As of 10:51 PM on Thursday 30 Oct 2014 (Local Time) from KELP Reporting Station
Few Clouds Few Clouds  
Wind Chill: 68°   Ceiling: Unl
Heat Index: 68°   Visibility: 10mi
Dew Point: 32°   Wind: 5mph
Humidity: 26%   Direction: NA
Pressure: 30.23"   Gusts: NA
Location:  31.76°N, 106.48°W
Report Text: KELP 310451Z VRB04KT 10SM FEW250 20/00 A3023 RMK AO2 SLP181 T02000000
Loading
Personal Weather Stations






























Interactive Weather Map New forecast layout! Learn more

10-Day Weather Forecast

Advertisements
Track Severe Weather on mobile